createdAt,value
2018-09-11T00:01:12.987Z,94.30
2018-09-11T00:03:41.843Z,94.20
2018-09-11T00:06:10.675Z,94.10
2018-09-11T00:08:40.255Z,94.00
2018-09-11T00:11:09.094Z,94.00
2018-09-11T00:13:37.934Z,94.10
2018-09-11T00:16:06.771Z,94.20
2018-09-11T00:18:35.617Z,94.70
2018-09-11T00:21:04.471Z,95.80
2018-09-11T00:23:33.317Z,96.40
2018-09-11T00:26:02.911Z,96.90
2018-09-11T00:28:31.734Z,97.60
2018-09-11T00:31:00.578Z,98.40
2018-09-11T00:33:29.413Z,98.70
2018-09-11T00:35:58.350Z,98.70
2018-09-11T00:38:27.101Z,99.20
2018-09-11T00:40:55.929Z,99.30
2018-09-11T00:43:24.779Z,99.70
2018-09-11T00:45:53.628Z,99.90
2018-09-11T00:48:22.482Z,99.90
2018-09-11T00:50:51.322Z,99.90
2018-09-11T00:53:20.166Z,99.90
2018-09-11T00:55:49.018Z,99.90
2018-09-11T00:58:17.862Z,99.90
2018-09-11T01:00:46.692Z,99.90
2018-09-11T01:03:15.541Z,99.90
2018-09-11T01:05:44.389Z,99.90
2018-09-11T01:08:13.218Z,99.90
2018-09-11T01:10:42.086Z,99.90
2018-09-11T01:13:10.922Z,99.90
2018-09-11T01:15:40.508Z,99.90
2018-09-11T01:18:10.096Z,99.90
2018-09-11T01:20:38.930Z,99.90
2018-09-11T01:23:07.780Z,99.90
2018-09-11T01:25:36.618Z,99.90
2018-09-11T01:28:05.463Z,99.90
2018-09-11T01:30:34.312Z,99.90
2018-09-11T01:33:03.156Z,99.90
2018-09-11T01:35:32.731Z,99.90
2018-09-11T01:38:01.562Z,99.90
2018-09-11T01:40:31.146Z,99.90
2018-09-11T01:42:59.987Z,99.90
2018-09-11T01:45:28.830Z,99.90
2018-09-11T01:47:58.411Z,99.90
2018-09-11T01:50:27.247Z,99.90
2018-09-11T01:52:56.080Z,99.90
2018-09-11T01:55:24.914Z,99.90
2018-09-11T01:57:54.496Z,99.90
2018-09-11T02:00:23.387Z,99.90
2018-09-11T02:02:52.232Z,99.80
2018-09-11T02:05:21.065Z,99.90
2018-09-11T02:07:49.906Z,99.90
2018-09-11T02:10:18.755Z,99.90
2018-09-11T02:12:47.600Z,99.90
2018-09-11T02:15:16.439Z,99.90
2018-09-11T02:17:45.289Z,99.90
2018-09-11T02:20:14.136Z,99.90
2018-09-11T02:22:43.721Z,99.90
2018-09-11T02:27:42.726Z,99.90
2018-09-11T02:30:12.313Z,99.90
2018-09-11T02:32:41.152Z,99.90
2018-09-11T02:35:10.741Z,99.90
2018-09-11T02:37:40.328Z,99.90
2018-09-11T02:42:39.327Z,99.90
2018-09-11T02:45:08.188Z,99.90
2018-09-11T02:47:37.055Z,99.90
2018-09-11T02:50:05.905Z,99.90
2018-09-11T02:52:34.742Z,99.90
2018-09-11T02:55:03.589Z,99.90
2018-09-11T03:00:01.862Z,99.90
2018-09-11T03:02:30.700Z,99.90
2018-09-11T03:04:59.539Z,99.90
2018-09-11T03:07:28.412Z,99.90
2018-09-11T03:09:57.247Z,99.90
2018-09-11T03:12:26.104Z,99.90
2018-09-11T03:14:54.930Z,99.90
2018-09-11T03:17:24.515Z,99.90
2018-09-11T03:19:53.356Z,99.90
2018-09-11T03:22:22.194Z,99.90
2018-09-11T03:24:51.040Z,99.90
2018-09-11T03:27:19.871Z,99.90
2018-09-11T03:29:48.724Z,99.90
2018-09-11T03:32:17.556Z,99.90
2018-09-11T03:34:46.393Z,99.90
2018-09-11T03:37:15.228Z,99.90
2018-09-11T03:39:44.077Z,99.90
2018-09-11T03:42:12.922Z,99.90
2018-09-11T03:44:42.521Z,99.90
2018-09-11T03:47:11.343Z,99.90
2018-09-11T03:49:40.183Z,99.90
2018-09-11T03:52:09.023Z,99.90
2018-09-11T03:54:37.872Z,99.90
2018-09-11T03:57:06.716Z,99.90
2018-09-11T03:59:35.559Z,99.90
2018-09-11T04:02:04.411Z,99.90
2018-09-11T04:04:33.252Z,99.90
2018-09-11T04:07:02.832Z,99.90
2018-09-11T04:09:31.673Z,99.90
2018-09-11T04:12:00.529Z,99.90
2018-09-11T04:14:29.379Z,99.90
2018-09-11T04:16:58.227Z,99.90
2018-09-11T04:19:27.068Z,99.90
2018-09-11T04:21:55.905Z,99.90
2018-09-11T04:24:25.492Z,99.90
2018-09-11T04:26:55.076Z,99.90
2018-09-11T04:29:23.908Z,99.90
2018-09-11T04:31:53.488Z,99.90
2018-09-11T04:34:22.375Z,99.90
2018-09-11T04:36:51.230Z,99.90
2018-09-11T04:39:20.076Z,99.90
2018-09-11T04:41:48.912Z,99.90
2018-09-11T04:44:17.751Z,99.90
2018-09-11T04:46:46.608Z,99.90
2018-09-11T04:49:15.453Z,99.90
2018-09-11T04:51:45.030Z,99.90
2018-09-11T04:54:13.873Z,99.90
2018-09-11T04:56:42.707Z,99.90
2018-09-11T04:59:11.557Z,99.90
2018-09-11T05:01:40.400Z,99.90
2018-09-11T05:04:09.276Z,99.90
2018-09-11T05:06:38.128Z,99.90
2018-09-11T05:09:06.964Z,99.90
2018-09-11T05:11:35.807Z,99.90
2018-09-11T05:14:04.680Z,99.90
2018-09-11T05:16:33.521Z,99.90
2018-09-11T05:19:02.372Z,99.90
2018-09-11T05:21:31.936Z,99.90
2018-09-11T05:24:00.946Z,99.90
2018-09-11T05:26:29.797Z,99.90
2018-09-11T05:28:58.636Z,99.90
2018-09-11T05:31:27.480Z,99.90
2018-09-11T05:33:56.321Z,99.90
2018-09-11T05:36:25.899Z,99.90
2018-09-11T05:38:54.825Z,99.90
2018-09-11T05:41:23.785Z,99.90
2018-09-11T05:43:52.682Z,99.90
2018-09-11T05:46:21.518Z,99.90
2018-09-11T05:48:50.374Z,99.90
2018-09-11T05:51:19.951Z,99.90
2018-09-11T05:53:48.806Z,99.90
2018-09-11T05:56:17.644Z,99.90
2018-09-11T05:58:46.491Z,99.90
2018-09-11T06:01:15.336Z,99.90
2018-09-11T06:03:44.183Z,99.90
2018-09-11T06:06:13.016Z,99.90
2018-09-11T06:08:42.612Z,99.90
2018-09-11T06:11:11.454Z,99.90
2018-09-11T06:13:40.389Z,99.90
2018-09-11T06:16:09.245Z,99.90
2018-09-11T06:18:38.121Z,99.90
2018-09-11T06:21:07.710Z,99.90
2018-09-11T06:23:36.557Z,99.90
2018-09-11T06:26:05.399Z,99.90
2018-09-11T06:28:34.244Z,99.90
2018-09-11T06:31:03.273Z,99.90
2018-09-11T06:33:32.102Z,99.90
2018-09-11T06:36:00.960Z,99.90
2018-09-11T06:38:29.806Z,99.90
2018-09-11T06:40:58.687Z,99.90
2018-09-11T06:43:27.497Z,99.90
2018-09-11T06:45:56.339Z,99.90
2018-09-11T06:48:25.919Z,99.90
2018-09-11T06:50:54.767Z,99.90
2018-09-11T06:53:23.612Z,99.90
2018-09-11T06:55:53.195Z,99.90
2018-09-11T06:58:22.031Z,99.90
2018-09-11T07:00:50.876Z,99.90
2018-09-11T07:03:19.716Z,99.90
2018-09-11T07:05:48.564Z,99.90
2018-09-11T07:08:17.405Z,99.90
2018-09-11T07:10:46.251Z,99.90
2018-09-11T07:13:15.864Z,99.90
2018-09-11T07:15:44.684Z,99.90
2018-09-11T07:18:13.522Z,99.90
2018-09-11T07:20:42.384Z,99.90
2018-09-11T07:23:11.223Z,99.90
2018-09-11T07:25:40.803Z,99.90
2018-09-11T07:28:10.390Z,99.90
2018-09-11T07:30:39.223Z,99.90
2018-09-11T07:33:08.814Z,99.90
2018-09-11T07:35:37.663Z,99.90
2018-09-11T07:38:06.516Z,99.90
2018-09-11T07:40:36.085Z,99.90
2018-09-11T07:43:04.922Z,99.90
2018-09-11T07:45:33.767Z,99.90
2018-09-11T07:48:02.573Z,99.90
2018-09-11T07:50:31.417Z,99.90
2018-09-11T07:53:00.280Z,99.90
2018-09-11T07:55:29.082Z,99.90
2018-09-11T07:57:57.911Z,99.90
2018-09-11T08:00:26.738Z,99.90
2018-09-11T08:02:55.608Z,99.90
2018-09-11T08:05:24.409Z,99.90
2018-09-11T08:07:53.251Z,99.90
2018-09-11T08:10:22.079Z,99.90
2018-09-11T08:12:51.666Z,99.90
2018-09-11T08:15:20.502Z,99.90
2018-09-11T08:17:49.343Z,99.90
2018-09-11T08:20:18.154Z,99.90
2018-09-11T08:22:47.731Z,99.90
2018-09-11T08:25:16.552Z,99.90
2018-09-11T08:27:46.133Z,99.90
2018-09-11T08:30:14.960Z,99.90
2018-09-11T08:32:43.816Z,99.90
2018-09-11T08:35:13.399Z,99.90
2018-09-11T08:37:42.248Z,99.90
2018-09-11T08:40:11.092Z,99.90
2018-09-11T08:42:39.933Z,99.90
2018-09-11T08:45:08.777Z,99.90
2018-09-11T08:47:37.628Z,99.90
2018-09-11T08:50:06.475Z,99.80
2018-09-11T08:52:36.167Z,99.90
2018-09-11T08:55:04.893Z,99.80
2018-09-11T08:57:33.733Z,99.90
2018-09-11T09:00:02.575Z,99.90
2018-09-11T09:02:31.404Z,99.30
2018-09-11T09:05:00.233Z,98.10
2018-09-11T09:07:29.823Z,97.40
2018-09-11T09:09:58.666Z,96.60
2018-09-11T09:12:27.493Z,96.90
2018-09-11T09:14:56.355Z,96.40
2018-09-11T09:17:25.196Z,95.40
2018-09-11T09:19:54.789Z,96.30
2018-09-11T09:22:23.626Z,96.70
2018-09-11T09:24:52.459Z,95.60
2018-09-11T09:27:21.325Z,95.60
2018-09-11T09:29:50.156Z,94.90
2018-09-11T09:32:19.757Z,94.80
2018-09-11T09:34:48.585Z,94.80
2018-09-11T09:37:18.150Z,94.20
2018-09-11T09:39:46.995Z,93.60
2018-09-11T09:42:15.834Z,92.10
2018-09-11T09:44:45.408Z,90.50
2018-09-11T09:47:14.244Z,89.00
2018-09-11T09:49:43.092Z,90.20
2018-09-11T09:52:11.923Z,89.00
2018-09-11T09:54:40.759Z,86.60
2018-09-11T09:57:09.609Z,86.00
2018-09-11T09:59:38.443Z,83.50
2018-09-11T10:02:07.736Z,83.80
2018-09-11T10:04:36.679Z,84.10
2018-09-11T10:07:06.138Z,84.50
2018-09-11T10:09:35.029Z,79.40
2018-09-11T10:12:03.831Z,79.60
2018-09-11T10:14:32.677Z,77.50
2018-09-11T10:17:01.516Z,77.50
2018-09-11T10:19:30.361Z,78.10
2018-09-11T10:21:59.186Z,78.90
2018-09-11T10:24:28.050Z,77.10
2018-09-11T10:26:57.154Z,76.40
2018-09-11T10:29:26.463Z,75.60
2018-09-11T10:31:55.288Z,75.20
2018-09-11T10:34:24.128Z,73.50
2018-09-11T10:36:52.970Z,72.80
2018-09-11T10:39:21.853Z,74.20
2018-09-11T10:41:50.636Z,74.40
2018-09-11T10:44:20.218Z,74.30
2018-09-11T10:46:49.054Z,72.70
2018-09-11T10:49:17.900Z,72.30
2018-09-11T10:51:46.759Z,71.30
2018-09-11T10:54:15.579Z,71.40
2018-09-11T10:56:44.435Z,71.30
2018-09-11T10:59:13.264Z,71.10
2018-09-11T11:01:42.115Z,69.70
2018-09-11T11:04:10.944Z,70.40
2018-09-11T11:06:39.781Z,70.80
2018-09-11T11:09:08.639Z,69.90
2018-09-11T11:11:37.454Z,69.80
2018-09-11T11:14:06.350Z,70.10
2018-09-11T11:16:35.137Z,69.50
2018-09-11T11:19:03.963Z,68.60
2018-09-11T11:21:32.787Z,68.30
2018-09-11T11:24:01.635Z,68.20
2018-09-11T11:26:30.465Z,67.10
2018-09-11T11:29:00.049Z,68.40
2018-09-11T11:31:28.900Z,67.70
2018-09-11T11:33:57.736Z,66.50
2018-09-11T11:36:27.423Z,67.10
2018-09-11T11:38:56.160Z,66.10
2018-09-11T11:41:25.002Z,67.50
2018-09-11T11:43:53.845Z,66.60
2018-09-11T11:46:22.679Z,65.80
2018-09-11T11:48:51.518Z,67.40
2018-09-11T11:51:20.362Z,66.20
2018-09-11T11:53:49.213Z,67.70
2018-09-11T11:56:18.053Z,64.40
2018-09-11T11:58:46.909Z,64.80
2018-09-11T12:01:15.750Z,63.70
2018-09-11T12:03:44.608Z,64.50
2018-09-11T12:06:13.463Z,64.70
2018-09-11T12:08:42.302Z,63.20
2018-09-11T12:11:11.892Z,61.90
2018-09-11T12:13:40.769Z,62.80
2018-09-11T12:16:09.669Z,62.20
2018-09-11T12:18:38.466Z,63.10
2018-09-11T12:21:07.298Z,60.60
2018-09-11T12:23:36.130Z,62.80
2018-09-11T12:26:04.991Z,61.40
2018-09-11T12:28:33.804Z,61.30
2018-09-11T12:31:02.652Z,60.60
2018-09-11T12:33:31.485Z,61.00
2018-09-11T12:36:00.324Z,60.10
2018-09-11T12:38:29.169Z,59.70
2018-09-11T12:40:58.008Z,59.80
2018-09-11T12:43:26.854Z,58.20
2018-09-11T12:45:55.751Z,58.90
2018-09-11T12:48:24.823Z,58.20
2018-09-11T12:50:53.351Z,57.00
2018-09-11T12:53:22.184Z,56.80
2018-09-11T12:55:51.025Z,56.40
2018-09-11T12:58:19.868Z,56.70
2018-09-11T13:00:48.704Z,56.80
2018-09-11T13:03:17.546Z,54.70
2018-09-11T13:05:46.387Z,55.30
2018-09-11T13:08:15.223Z,55.40
2018-09-11T13:10:44.065Z,56.10
2018-09-11T13:13:12.900Z,53.90
2018-09-11T13:15:41.756Z,54.20
2018-09-11T13:18:10.584Z,54.10
2018-09-11T13:20:39.415Z,52.80
2018-09-11T13:23:08.252Z,54.60
2018-09-11T13:25:37.084Z,52.30
2018-09-11T13:28:06.655Z,53.30
2018-09-11T13:30:35.533Z,53.60
2018-09-11T13:33:04.358Z,53.60
2018-09-11T13:35:33.216Z,51.20
2018-09-11T13:38:02.051Z,50.90
2018-09-11T13:40:30.892Z,52.20
2018-09-11T13:42:59.750Z,51.60
2018-09-11T13:45:28.582Z,53.10
2018-09-11T13:47:57.472Z,51.70
2018-09-11T13:50:26.270Z,52.20
2018-09-11T13:52:55.133Z,53.10
2018-09-11T13:55:23.938Z,51.00
2018-09-11T13:57:52.768Z,50.60
2018-09-11T14:00:21.598Z,49.80
2018-09-11T14:02:50.431Z,49.50
2018-09-11T14:05:19.275Z,49.00
2018-09-11T14:07:48.120Z,48.30
2018-09-11T14:10:17.684Z,48.80
2018-09-11T14:12:46.518Z,48.60
2018-09-11T14:15:15.366Z,48.70
2018-09-11T14:17:44.193Z,48.10
2018-09-11T14:20:13.031Z,48.20
2018-09-11T14:22:41.867Z,48.20
2018-09-11T14:25:10.722Z,47.30
2018-09-11T14:27:39.564Z,47.20
2018-09-11T14:30:08.401Z,47.80
2018-09-11T14:32:37.226Z,48.60
2018-09-11T14:35:06.081Z,48.40
2018-09-11T14:37:34.942Z,49.70
2018-09-11T14:40:03.786Z,49.10
2018-09-11T14:42:33.377Z,49.40
2018-09-11T14:45:02.217Z,49.50
2018-09-11T14:47:31.074Z,48.70
2018-09-11T14:50:00.661Z,48.10
2018-09-11T14:52:29.523Z,47.30
2018-09-11T14:54:58.315Z,47.60
2018-09-11T14:57:27.213Z,48.10
2018-09-11T14:59:55.992Z,48.50
2018-09-11T15:02:24.828Z,48.20
2018-09-11T15:04:53.679Z,47.90
2018-09-11T15:07:22.502Z,48.30
2018-09-11T15:09:52.081Z,48.70
2018-09-11T15:12:20.915Z,48.10
2018-09-11T15:14:49.755Z,47.60
2018-09-11T15:17:18.582Z,48.10
2018-09-11T15:19:48.170Z,48.50
2018-09-11T15:22:17.017Z,48.50
2018-09-11T15:24:45.848Z,48.50
2018-09-11T15:27:14.723Z,47.50
2018-09-11T15:29:43.601Z,47.50
2018-09-11T15:32:12.412Z,48.60
2018-09-11T15:34:41.254Z,48.30
2018-09-11T15:37:10.097Z,48.30
2018-09-11T15:39:38.950Z,49.50
2018-09-11T15:42:07.790Z,48.70
2018-09-11T15:44:36.616Z,50.00
2018-09-11T15:47:05.472Z,50.00
2018-09-11T15:49:34.289Z,48.70
2018-09-11T15:52:03.117Z,48.60
2018-09-11T15:54:31.989Z,48.20
2018-09-11T15:57:00.024Z,48.30
2018-09-11T15:59:28.856Z,48.80
2018-09-11T16:01:57.757Z,49.70
2018-09-11T16:04:26.559Z,50.30
2018-09-11T16:06:55.466Z,49.40
2018-09-11T16:09:24.986Z,50.00
2018-09-11T16:11:53.830Z,50.60
2018-09-11T16:14:22.668Z,50.30
2018-09-11T16:16:51.500Z,51.00
2018-09-11T16:19:20.351Z,50.50
2018-09-11T16:21:49.206Z,50.70
2018-09-11T16:24:18.035Z,50.30
2018-09-11T16:26:46.878Z,50.50
2018-09-11T16:29:15.722Z,50.60
2018-09-11T16:31:45.296Z,51.00
2018-09-11T16:34:14.204Z,50.70
2018-09-11T16:36:42.971Z,51.00
2018-09-11T16:39:11.813Z,50.80
2018-09-11T16:41:40.644Z,51.80
2018-09-11T16:44:09.475Z,51.80
2018-09-11T16:46:38.343Z,51.20
2018-09-11T16:49:07.167Z,51.90
2018-09-11T16:51:36.002Z,52.20
2018-09-11T16:54:04.834Z,52.70
2018-09-11T16:56:33.690Z,53.10
2018-09-11T16:59:02.525Z,53.70
2018-09-11T17:01:31.393Z,53.90
2018-09-11T17:04:01.083Z,54.20
2018-09-11T17:06:29.808Z,54.70
2018-09-11T17:08:58.649Z,54.60
2018-09-11T17:11:27.486Z,55.30
2018-09-11T17:13:56.349Z,55.30
2018-09-11T17:16:25.934Z,57.20
2018-09-11T17:18:54.771Z,57.50
2018-09-11T17:21:23.608Z,57.50
2018-09-11T17:24:05.168Z,57.80
2018-09-11T17:26:34.016Z,58.70
2018-09-11T17:29:03.627Z,59.00
2018-09-11T17:31:33.205Z,60.00
2018-09-11T17:34:02.063Z,59.50
2018-09-11T17:36:30.905Z,60.20
2018-09-11T17:38:59.762Z,61.20
2018-09-11T17:41:28.612Z,61.00
2018-09-11T17:43:57.559Z,62.10
2018-09-11T17:46:26.415Z,63.00
2018-09-11T17:48:55.289Z,63.70
2018-09-11T17:51:24.823Z,64.10
2018-09-11T17:53:53.659Z,65.10
2018-09-11T17:56:57.665Z,66.20
2018-09-11T17:59:26.483Z,67.20
2018-09-11T18:01:55.329Z,67.90
2018-09-11T18:04:24.489Z,67.60
2018-09-11T18:06:53.214Z,68.20
2018-09-11T18:09:22.051Z,68.10
2018-09-11T18:11:50.875Z,68.00
2018-09-11T18:14:19.723Z,67.40
2018-09-11T18:16:49.301Z,67.60
2018-09-11T18:19:18.155Z,68.10
2018-09-11T18:21:46.990Z,68.50
2018-09-11T18:24:16.567Z,69.40
2018-09-11T18:29:15.611Z,71.90
2018-09-11T18:31:45.208Z,72.80
2018-09-11T18:34:14.773Z,74.60
2018-09-11T18:36:43.682Z,74.10
2018-09-11T18:39:12.480Z,75.20
2018-09-11T18:41:41.338Z,76.10
2018-09-11T18:44:10.173Z,76.50
2018-09-11T18:46:39.021Z,77.70
2018-09-11T18:49:07.855Z,78.30
2018-09-11T18:51:37.497Z,78.90
2018-09-11T18:54:07.048Z,80.30
2018-09-11T18:56:35.928Z,81.70
2018-09-11T18:59:04.786Z,82.10
2018-09-11T19:01:33.560Z,82.60
2018-09-11T19:04:02.491Z,83.00
2018-09-11T19:06:31.331Z,83.60
2018-09-11T19:09:00.167Z,84.10
2018-09-11T19:11:29.015Z,84.40
2018-09-11T19:13:57.851Z,85.60
2018-09-11T19:16:26.696Z,86.30
2018-09-11T19:18:55.543Z,86.70
2018-09-11T19:21:24.377Z,87.50
2018-09-11T19:23:53.221Z,87.70
2018-09-11T19:26:22.088Z,88.10
2018-09-11T19:28:51.011Z,89.20
2018-09-11T19:31:19.745Z,89.80
2018-09-11T19:33:48.638Z,90.00
2018-09-11T19:36:18.162Z,90.50
2018-09-11T19:38:47.009Z,90.60
2018-09-11T19:41:15.858Z,90.50
2018-09-11T19:43:44.692Z,90.70
2018-09-11T19:46:13.533Z,91.20
2018-09-11T19:48:42.363Z,91.50
2018-09-11T19:51:11.208Z,91.70
2018-09-11T19:53:40.041Z,91.70
2018-09-11T19:56:08.928Z,91.70
2018-09-11T19:58:38.531Z,91.60
2018-09-11T20:01:07.389Z,92.10
2018-09-11T20:03:36.203Z,92.30
2018-09-11T20:06:05.026Z,92.30
2018-09-11T20:08:33.867Z,92.20
2018-09-11T20:11:02.712Z,92.70
2018-09-11T20:13:31.551Z,92.80
2018-09-11T20:16:00.393Z,92.40
2018-09-11T20:18:29.223Z,92.50
2018-09-11T20:20:58.062Z,92.30
2018-09-11T20:23:26.901Z,92.00
2018-09-11T20:25:55.739Z,91.70
2018-09-11T20:28:24.591Z,91.30
2018-09-11T20:30:53.442Z,90.90
2018-09-11T20:33:22.280Z,90.70
2018-09-11T20:35:51.120Z,89.50
2018-09-11T20:38:19.970Z,89.00
2018-09-11T20:40:49.681Z,89.10
2018-09-11T20:43:18.398Z,89.50
2018-09-11T20:45:47.232Z,90.00
2018-09-11T20:48:16.078Z,89.60
2018-09-11T20:50:45.454Z,90.10
2018-09-11T20:53:14.291Z,90.30
2018-09-11T20:55:43.135Z,90.60
2018-09-11T20:58:12.742Z,91.40
2018-09-11T21:00:41.551Z,91.50
2018-09-11T21:03:10.380Z,91.60
2018-09-11T21:05:39.220Z,91.20
2018-09-11T21:08:08.092Z,91.30
2018-09-11T21:10:36.942Z,91.30
2018-09-11T21:13:06.165Z,91.80
2018-09-11T21:15:35.018Z,91.60
2018-09-11T21:18:03.866Z,91.50
2018-09-11T21:20:32.714Z,91.60
2018-09-11T21:23:01.550Z,91.90
2018-09-11T21:25:30.402Z,92.10
2018-09-11T21:27:59.227Z,92.40
2018-09-11T21:30:28.229Z,92.40
2018-09-11T21:32:57.104Z,92.50
2018-09-11T21:35:25.965Z,92.70
2018-09-11T21:37:54.820Z,92.70
2018-09-11T21:40:23.682Z,93.10
2018-09-11T21:42:52.522Z,93.70
2018-09-11T21:45:21.356Z,94.40
2018-09-11T21:47:50.195Z,94.60
2018-09-11T21:50:19.852Z,94.70
2018-09-11T21:52:48.672Z,95.20
2018-09-11T21:55:17.554Z,96.10
2018-09-11T21:57:46.387Z,97.10
2018-09-11T22:00:15.276Z,97.70
2018-09-11T22:02:44.073Z,98.00
2018-09-11T22:05:13.649Z,97.80
2018-09-11T22:07:42.489Z,98.10
2018-09-11T22:10:11.327Z,97.70
2018-09-11T22:15:10.338Z,97.80
2018-09-11T22:17:39.177Z,98.10
2018-09-11T22:20:08.023Z,98.00
2018-09-11T22:22:36.874Z,98.20
2018-09-11T22:25:05.709Z,98.80
2018-09-11T22:27:35.493Z,99.40
2018-09-11T22:30:04.332Z,99.70
2018-09-11T22:32:33.173Z,99.80
2018-09-11T22:35:02.025Z,99.90
2018-09-11T22:37:30.840Z,99.90
2018-09-11T22:39:59.691Z,99.90
2018-09-11T22:42:28.527Z,99.90
2018-09-11T22:44:57.352Z,99.90
2018-09-11T22:47:26.920Z,99.70
2018-09-11T22:49:55.760Z,99.80
2018-09-11T22:52:24.595Z,99.90
2018-09-11T22:54:53.423Z,99.90
2018-09-11T22:57:22.259Z,99.90
2018-09-11T22:59:51.100Z,99.90
2018-09-11T23:02:20.682Z,99.90
2018-09-11T23:04:49.537Z,99.90
2018-09-11T23:07:18.370Z,99.90
2018-09-11T23:09:47.218Z,99.90
2018-09-11T23:12:16.054Z,99.90
2018-09-11T23:17:14.315Z,99.90
2018-09-11T23:19:43.149Z,99.90
2018-09-11T23:22:12.732Z,99.90
2018-09-11T23:27:11.007Z,99.90
2018-09-11T23:29:39.854Z,99.90
2018-09-11T23:32:09.427Z,99.90
2018-09-11T23:34:38.270Z,99.90
2018-09-11T23:37:07.099Z,99.90
2018-09-11T23:39:35.951Z,99.90
2018-09-11T23:42:04.783Z,99.90
2018-09-11T23:44:33.622Z,99.90
2018-09-11T23:47:02.441Z,99.80
2018-09-11T23:49:31.350Z,99.20
2018-09-11T23:52:00.197Z,98.40
2018-09-11T23:54:29.028Z,97.90
2018-09-11T23:56:57.858Z,97.70
2018-09-11T23:59:26.695Z,97.60
